Airfield :
LOGIN :

Register | Disclaimer

   EN    FR    IT 

 










Legend :    VFR   Marginal VFR   IFR   Intensive IFR   Very Intensive IFR
Visi :
Ceiling :
>= 8 km
>= 3000ft
5 to 8 km
1000 to 3000 ft
1500m to 5 km
500 to 1000 ft
800 to 1500m
200 to 500 ft
< 800m
< 200 ft
Symbols :   Thunderstorms  Fog  Heavy snow  Heavy precipitations  Wind > 20 kt
SIGMETs :     Misc.  Thunderstorms  Icing  Turbulence  Mountain Waves  Volcanic Ashes






- Airport Elevation : 3 ft
- IATA code : LWR


EHLW - Leuuwarden Air Base

CURRENT METAR :
  • 212025Z AUTO 11007KT 070V150 6000 BR FEW006 OVC130 04/03 Q1006 WHT

EXPIRED METARs :
  • 212018Z AUTO 12007KT 070V150 6000 BR FEW006 OVC130 04/03 Q1006 WHT
  • 212008Z AUTO 12006KT 060V160 6000 BR OVC006 04/03 Q1006 YLO
  • 211955Z AUTO 12009KT 060V150 6000 BR FEW007 OVC008 04/03 Q1006 GRN
  • 211936Z AUTO 12009KT 080V160 7000 BR SCT007 BKN008 OVC010 04/03 Q1006 GRN
  • 211925Z AUTO 12008KT 080V160 7000 BR BKN006 OVC008 04/03 Q1007 YLO
  • 211905Z AUTO 11008KT 060V170 7000 BR OVC006 04/03 Q1007 YLO
  • 211855Z AUTO 11008KT 060V180 7000 BR SCT007 OVC008 04/03 Q1007 GRN
  • 211838Z AUTO 11008KT 050V150 8000 BR SCT007 OVC008 04/03 Q1007 GRN
  • 211825Z AUTO 11007KT 040V160 8000 BR SCT007 BKN008 OVC010 04/03 Q1007 GRN
  • 211801Z AUTO 11009KT 060V150 8000 BR BKN007 OVC008 04/03 Q1007 GRN
  • 211755Z AUTO 12008KT 040V170 8000 BR BKN006 BKN007 OVC008 04/03 Q1007 YLO
  • 211741Z AUTO 11009KT 060V150 7000 BR BKN006 OVC007 04/03 Q1007 YLO

TAF TAF EHLW
Valid from the 21 at 18:00 until the 22 at 06:00 UTC


211741Z 2118/2206 11011KT 8000 BKN006
BECMG 2118/2121 4000 BR FEW010
BECMG 2203/2206 15010KT



MET'MAP, your aeronautical weather chart ! - Copyright ORBIFLY December 2007 - Disclaimer

ORBIFLY MET'MAP TEAM :

Programming & Development : Alexandra Zaïnal
Concept & Development : Baudouin d'Aumeries
Co-Development & Prog : Marc-Olivier Méhu
Technical & hardware support : Manuel Goepfert

Contact : metmap@orbifly.com




SOURCES & CREDITS :

   NOAA